TimeCDT,TemperatureF,Dew PointF,Humidity,Sea Level PressureIn,VisibilityMPH,Wind Direction,Wind SpeedMPH,Gust SpeedMPH,PrecipitationIn,Events,Conditions,WindDirDegrees,DateUTC
12:15 AM,73.4,44.6,36,29.78,10.0,SE,10.4,-,N/A,,Clear,140,2013-09-26 05:15:00
12:35 AM,73.4,44.6,36,29.77,10.0,SE,15.0,-,N/A,,Clear,140,2013-09-26 05:35:00
12:55 AM,73.4,46.4,38,29.77,10.0,SE,16.1,-,N/A,,Clear,140,2013-09-26 05:55:00
1:15 AM,71.6,46.4,41,29.76,10.0,SSE,13.8,20.7,N/A,,Clear,150,2013-09-26 06:15:00
1:35 AM,71.6,46.4,41,29.76,10.0,SSE,12.7,-,N/A,,Clear,150,2013-09-26 06:35:00
1:55 AM,69.8,46.4,43,29.76,10.0,SSE,12.7,-,N/A,,Clear,150,2013-09-26 06:55:00
2:15 AM,69.8,46.4,43,29.76,10.0,SSE,9.2,-,N/A,,Clear,150,2013-09-26 07:15:00
2:35 AM,69.8,48.2,46,29.77,10.0,SSE,8.1,-,N/A,,Clear,150,2013-09-26 07:35:00
2:55 AM,68.0,50.0,52,29.77,10.0,SSE,9.2,-,N/A,,Scattered Clouds,150,2013-09-26 07:55:00
3:15 AM,68.0,50.0,52,29.77,10.0,SSE,10.4,-,N/A,,Scattered Clouds,150,2013-09-26 08:15:00
3:35 AM,68.0,50.0,52,29.77,10.0,SSE,12.7,-,N/A,,Clear,160,2013-09-26 08:35:00
3:55 AM,68.0,50.0,52,29.77,10.0,SSE,11.5,-,N/A,,Clear,150,2013-09-26 08:55:00
4:15 AM,68.0,50.0,52,29.77,10.0,SE,11.5,-,N/A,,Clear,140,2013-09-26 09:15:00
4:35 AM,68.0,51.8,56,29.77,10.0,SSE,10.4,-,N/A,,Scattered Clouds,150,2013-09-26 09:35:00
4:55 AM,68.0,51.8,56,29.77,10.0,SSE,11.5,-,N/A,,Scattered Clouds,150,2013-09-26 09:55:00
5:15 AM,68.0,51.8,56,29.77,10.0,SSE,11.5,-,N/A,,Scattered Clouds,150,2013-09-26 10:15:00
5:35 AM,68.0,51.8,56,29.77,10.0,SSE,10.4,-,N/A,,Scattered Clouds,150,2013-09-26 10:35:00
5:55 AM,68.0,53.6,60,29.78,10.0,SSE,10.4,-,N/A,,Scattered Clouds,150,2013-09-26 10:55:00
6:15 AM,66.2,53.6,64,29.78,10.0,SSE,10.4,-,N/A,,Clear,150,2013-09-26 11:15:00
6:35 AM,66.2,53.6,64,29.78,10.0,SSE,10.4,-,N/A,,Clear,150,2013-09-26 11:35:00
6:55 AM,66.2,53.6,64,29.79,10.0,SE,10.4,-,N/A,,Scattered Clouds,140,2013-09-26 11:55:00
7:15 AM,66.2,53.6,64,29.79,10.0,SSE,12.7,-,N/A,,Scattered Clouds,150,2013-09-26 12:15:00
7:35 AM,66.2,53.6,64,29.80,10.0,SSE,12.7,-,N/A,,Scattered Clouds,150,2013-09-26 12:35:00
7:55 AM,66.2,53.6,64,29.81,10.0,SSE,12.7,-,N/A,,Clear,160,2013-09-26 12:55:00
8:15 AM,68.0,53.6,60,29.81,10.0,South,15.0,-,N/A,,Clear,170,2013-09-26 13:15:00
8:35 AM,68.0,53.6,60,29.82,10.0,SSE,13.8,-,N/A,,Clear,160,2013-09-26 13:35:00
8:55 AM,69.8,53.6,56,29.82,10.0,SSE,15.0,-,N/A,,Clear,160,2013-09-26 13:55:00
9:15 AM,69.8,53.6,56,29.83,10.0,SSE,13.8,-,N/A,,Clear,160,2013-09-26 14:15:00
9:35 AM,71.6,53.6,53,29.83,10.0,South,17.3,-,N/A,,Clear,170,2013-09-26 14:35:00
9:55 AM,75.2,53.6,47,29.83,10.0,South,15.0,24.2,N/A,,Clear,190,2013-09-26 14:55:00
10:15 AM,77.0,53.6,44,29.83,10.0,South,19.6,26.5,N/A,,Clear,180,2013-09-26 15:15:00
10:35 AM,78.8,53.6,42,29.83,10.0,South,21.9,-,N/A,,Clear,180,2013-09-26 15:35:00
10:55 AM,80.6,53.6,39,29.84,10.0,South,17.3,24.2,N/A,,Clear,180,2013-09-26 15:55:00
11:15 AM,80.6,53.6,39,29.84,10.0,South,20.7,28.8,N/A,,Clear,190,2013-09-26 16:15:00
11:35 AM,82.4,51.8,35,29.83,10.0,South,21.9,-,N/A,,Clear,190,2013-09-26 16:35:00
11:55 AM,82.4,53.6,37,29.83,10.0,South,21.9,25.3,N/A,,Clear,180,2013-09-26 16:55:00
12:15 PM,84.2,51.8,33,29.83,10.0,South,20.7,27.6,N/A,,Clear,190,2013-09-26 17:15:00
12:35 PM,86.0,53.6,33,29.82,10.0,South,20.7,24.2,N/A,,Clear,180,2013-09-26 17:35:00
12:55 PM,86.0,51.8,31,29.82,10.0,South,26.5,31.1,N/A,,Clear,190,2013-09-26 17:55:00
1:15 PM,86.0,51.8,31,29.81,10.0,South,21.9,28.8,N/A,,Clear,180,2013-09-26 18:15:00
1:35 PM,87.8,50.0,27,29.81,10.0,South,20.7,26.5,N/A,,Clear,180,2013-09-26 18:35:00
1:55 PM,87.8,50.0,27,29.80,10.0,South,23.0,31.1,N/A,,Clear,180,2013-09-26 18:55:00
2:15 PM,89.6,50.0,26,29.80,10.0,South,25.3,28.8,N/A,,Clear,180,2013-09-26 19:15:00
2:35 PM,89.6,48.2,24,29.79,10.0,South,19.6,32.2,N/A,,Clear,180,2013-09-26 19:35:00
2:55 PM,91.4,50.0,24,29.79,10.0,South,18.4,27.6,N/A,,Clear,180,2013-09-26 19:55:00
3:15 PM,91.4,48.2,23,29.78,10.0,South,25.3,33.4,N/A,,Clear,180,2013-09-26 20:15:00
3:35 PM,91.4,48.2,23,29.78,10.0,South,25.3,32.2,N/A,,Clear,180,2013-09-26 20:35:00
3:55 PM,91.4,46.4,21,29.78,10.0,South,23.0,32.2,N/A,,Clear,180,2013-09-26 20:55:00
4:15 PM,91.4,46.4,21,29.77,10.0,SSE,21.9,31.1,N/A,,Clear,160,2013-09-26 21:15:00
4:35 PM,91.4,44.6,20,29.77,10.0,South,20.7,31.1,N/A,,Clear,180,2013-09-26 21:35:00
4:55 PM,91.4,42.8,18,29.78,10.0,South,21.9,31.1,N/A,,Clear,170,2013-09-26 21:55:00
5:15 PM,91.4,44.6,20,29.78,10.0,SSE,21.9,28.8,N/A,,Clear,160,2013-09-26 22:15:00
5:35 PM,91.4,44.6,20,29.78,10.0,SSE,24.2,27.6,N/A,,Clear,160,2013-09-26 22:35:00
5:55 PM,89.6,44.6,21,29.78,10.0,SSE,25.3,31.1,N/A,,Clear,160,2013-09-26 22:55:00
6:15 PM,89.6,44.6,21,29.78,10.0,South,23.0,31.1,N/A,,Clear,170,2013-09-26 23:15:00
6:35 PM,89.6,44.6,21,29.78,10.0,South,21.9,28.8,N/A,,Clear,170,2013-09-26 23:35:00
6:55 PM,87.8,46.4,24,29.78,10.0,South,20.7,26.5,N/A,,Clear,170,2013-09-26 23:55:00
7:15 PM,87.8,46.4,24,29.79,10.0,South,17.3,-,N/A,,Clear,170,2013-09-27 00:15:00
7:35 PM,86.0,46.4,25,29.79,10.0,SSE,17.3,21.9,N/A,,Clear,160,2013-09-27 00:35:00
7:55 PM,84.2,46.4,27,29.80,10.0,SSE,16.1,21.9,N/A,,Clear,160,2013-09-27 00:55:00
8:15 PM,82.4,46.4,28,29.80,10.0,SSE,16.1,-,N/A,,Clear,160,2013-09-27 01:15:00
8:35 PM,82.4,46.4,28,29.81,10.0,SSE,15.0,-,N/A,,Clear,160,2013-09-27 01:35:00
8:55 PM,80.6,48.2,32,29.81,10.0,SSE,16.1,-,N/A,,Clear,160,2013-09-27 01:55:00
9:15 PM,80.6,48.2,32,29.81,10.0,SSE,16.1,-,N/A,,Clear,160,2013-09-27 02:15:00
9:35 PM,80.6,48.2,32,29.82,10.0,SSE,15.0,-,N/A,,Clear,160,2013-09-27 02:35:00
9:55 PM,78.8,50.0,36,29.82,10.0,SSE,15.0,-,N/A,,Clear,160,2013-09-27 02:55:00
10:15 PM,78.8,50.0,36,29.83,10.0,SSE,15.0,-,N/A,,Clear,150,2013-09-27 03:15:00
10:35 PM,77.0,50.0,39,29.84,10.0,SSE,13.8,19.6,N/A,,Clear,150,2013-09-27 03:35:00
10:55 PM,75.2,50.0,41,29.84,10.0,SSE,15.0,-,N/A,,Clear,160,2013-09-27 03:55:00
11:15 PM,77.0,50.0,39,29.84,10.0,South,13.8,-,N/A,,Clear,170,2013-09-27 04:15:00
11:35 PM,75.2,50.0,41,29.85,10.0,South,15.0,-,N/A,,Clear,170,2013-09-27 04:35:00
11:55 PM,77.0,48.2,36,29.85,10.0,SSE,16.1,20.7,N/A,,Clear,160,2013-09-27 04:55:00